Time;durP1;ratioP1;P1;durP2;ratioP2;P2;SDS_P1;SDS_P2;PMS_P1;PMS_P2;Temp;Humidity;BMP_temperature;BMP_pressure;BME280_temperature;BME280_humidity;BME280_pressure;Samples;Min_cycle;Max_cycle;Signal;HPM_P1;HPM_P2
2022/05/30 00:00:14;;;;;;;10.97;1.33;;;9.30;99.90;;;;;;5032818;28;20510;-79
2022/05/30 00:02:40;;;;;;;6.37;1.17;;;9.20;99.90;;;;;;5033261;28;20817;-79
2022/05/30 00:05:07;;;;;;;3.73;0.67;;;9.30;99.90;;;;;;5033381;28;20408;-79
2022/05/30 00:07:32;;;;;;;3.67;0.60;;;9.30;99.90;;;;;;5033270;28;20417;-79
2022/05/30 00:09:58;;;;;;;4.50;0.73;;;9.30;99.90;;;;;;5033150;28;20413;-80
2022/05/30 00:12:23;;;;;;;2.27;0.40;;;9.30;99.90;;;;;;5033011;28;20174;-79
2022/05/30 00:14:49;;;;;;;2.50;0.27;;;9.30;99.90;;;;;;5032886;28;20209;-79
2022/05/30 00:17:14;;;;;;;3.00;0.40;;;9.30;99.90;;;;;;5033201;28;20651;-79
2022/05/30 00:19:40;;;;;;;8.43;0.50;;;9.20;99.90;;;;;;5033152;28;20171;-79
2022/05/30 00:22:06;;;;;;;8.10;0.70;;;9.30;99.90;;;;;;5032931;28;20212;-80
2022/05/30 00:24:33;;;;;;;2.40;0.50;;;9.30;99.90;;;;;;5033165;28;20159;-81
2022/05/30 00:26:58;;;;;;;5.33;0.67;;;9.30;99.90;;;;;;5033070;28;20416;-81
2022/05/30 00:29:25;;;;;;;6.07;2.63;;;9.30;99.90;;;;;;5032549;28;20500;-80
2022/05/30 00:31:50;;;;;;;1.90;0.60;;;9.30;99.90;;;;;;5033072;28;20204;-81
2022/05/30 00:34:18;;;;;;;3.50;0.73;;;9.30;99.90;;;;;;5032951;28;20822;-81
2022/05/30 00:36:43;;;;;;;3.70;0.67;;;9.30;99.90;;;;;;5033299;28;20693;-80
2022/05/30 00:39:09;;;;;;;1.57;0.53;;;9.30;99.90;;;;;;5032900;28;20409;-80
2022/05/30 00:41:35;;;;;;;2.60;0.47;;;9.30;99.90;;;;;;5032867;28;20217;-80
2022/05/30 00:44:00;;;;;;;4.60;0.83;;;9.30;99.90;;;;;;5032514;28;20204;-80
2022/05/30 00:46:26;;;;;;;5.70;0.97;;;9.20;99.90;;;;;;5032849;28;20174;-80
2022/05/30 00:48:55;;;;;;;3.13;0.57;;;9.30;99.90;;;;;;5032809;28;20195;-80
2022/05/30 00:51:24;;;;;;;8.63;1.03;;;9.30;99.90;;;;;;5015161;28;20611;-80
2022/05/30 00:53:54;;;;;;;5.13;0.80;;;9.30;99.90;;;;;;5024701;28;20424;-81
2022/05/30 00:56:22;;;;;;;4.10;1.07;;;9.20;99.90;;;;;;5032790;28;20401;-80
2022/05/30 00:58:50;;;;;;;4.93;0.73;;;9.30;99.90;;;;;;5032360;28;20934;-79
2022/05/30 01:01:17;;;;;;;7.20;0.80;;;9.30;99.90;;;;;;5032646;28;20460;-79
2022/05/30 01:06:33;;;;;;;5.07;1.53;;;9.20;99.90;;;;;;5032785;28;20416;-79
2022/05/30 01:09:02;;;;;;;6.40;0.93;;;9.20;99.90;;;;;;5035146;28;20896;-79
2022/05/30 01:11:50;;;;;;;5.80;1.50;;;9.20;99.90;;;;;;5036532;28;20190;-80
2022/05/30 01:14:16;;;;;;;5.53;0.83;;;9.20;99.90;;;;;;5035952;28;20812;-79
2022/05/30 01:16:42;;;;;;;4.83;0.77;;;9.20;99.90;;;;;;5036381;28;20554;-79
2022/05/30 01:19:34;;;;;;;1.83;0.93;;;9.20;99.90;;;;;;5036350;28;20439;-80
2022/05/30 01:22:38;;;;;;;8.67;1.03;;;9.20;99.90;;;;;;5036224;28;20308;-80
2022/05/30 01:25:26;;;;;;;9.10;1.33;;;9.20;99.90;;;;;;4969199;28;20422;-80
2022/05/30 01:28:10;;;;;;;3.43;0.60;;;9.20;99.90;;;;;;5024813;28;20439;-79
2022/05/30 01:30:38;;;;;;;5.00;0.90;;;9.20;99.90;;;;;;5035988;28;20417;-80
2022/05/30 01:33:05;;;;;;;6.20;1.03;;;9.30;99.90;;;;;;5035995;28;20945;-79
2022/05/30 01:35:30;;;;;;;4.27;1.60;;;9.30;99.90;;;;;;5036014;28;20983;-79
2022/05/30 01:37:57;;;;;;;3.20;0.87;;;9.30;99.90;;;;;;5035959;28;20416;-80
2022/05/30 01:40:24;;;;;;;2.60;0.80;;;9.30;99.90;;;;;;5035866;28;20203;-80
2022/05/30 01:42:49;;;;;;;11.60;0.87;;;9.20;99.90;;;;;;5035464;28;20427;-79
2022/05/30 01:45:15;;;;;;;5.20;0.50;;;9.20;99.90;;;;;;5035949;28;20409;-79
2022/05/30 01:47:40;;;;;;;6.40;0.70;;;9.10;99.90;;;;;;5018018;28;20635;-80
2022/05/30 01:50:06;;;;;;;7.13;1.40;;;9.20;99.90;;;;;;5035824;28;20253;-80
2022/05/30 01:52:33;;;;;;;7.47;1.23;;;9.20;99.90;;;;;;5035706;28;20180;-79
2022/05/30 01:54:58;;;;;;;3.47;1.00;;;9.20;99.90;;;;;;5017884;28;20788;-80
2022/05/30 01:57:24;;;;;;;5.10;0.60;;;9.10;99.90;;;;;;5017849;28;20424;-79
2022/05/30 01:59:49;;;;;;;3.83;0.53;;;9.10;99.90;;;;;;5035240;28;20169;-79
2022/05/30 02:02:15;;;;;;;5.97;0.80;;;9.10;99.90;;;;;;5035554;28;20717;-80
2022/05/30 02:04:40;;;;;;;3.73;0.43;;;9.10;99.90;;;;;;5035516;28;20192;-80
2022/05/30 02:07:06;;;;;;;4.73;0.90;;;9.10;99.90;;;;;;5017783;28;20265;-79
2022/05/30 02:09:32;;;;;;;5.60;0.70;;;9.10;99.90;;;;;;5035475;28;20539;-79
2022/05/30 02:11:57;;;;;;;3.13;0.80;;;9.20;99.90;;;;;;5035349;28;20409;-79
2022/05/30 02:14:23;;;;;;;6.63;1.00;;;9.20;99.90;;;;;;5034742;28;20221;-79
2022/05/30 02:17:01;;;;;;;5.57;0.60;;;9.20;99.90;;;;;;5035234;28;20170;-79
2022/05/30 02:19:37;;;;;;;4.60;0.70;;;9.20;99.90;;;;;;5034124;28;20586;-79
2022/05/30 02:22:04;;;;;;;6.07;0.33;;;9.20;99.90;;;;;;5035095;28;20478;-79
2022/05/30 02:24:29;;;;;;;6.33;1.30;;;9.20;99.90;;;;;;5035196;28;20443;-79
2022/05/30 02:26:55;;;;;;;3.03;0.43;;;9.20;99.90;;;;;;5035149;28;20462;-79
2022/05/30 02:29:20;;;;;;;3.33;0.73;;;9.20;99.90;;;;;;5034594;28;20171;-79
2022/05/30 02:31:46;;;;;;;5.20;0.63;;;9.20;99.90;;;;;;5033312;28;20162;-79
2022/05/30 02:36:55;;;;;;;2.77;0.93;;;9.20;99.90;;;;;;5033908;28;20189;-80
2022/05/30 02:39:23;;;;;;;3.80;0.80;;;9.20;99.90;;;;;;5034821;28;20920;-79
2022/05/30 02:41:50;;;;;;;6.00;1.37;;;9.20;99.90;;;;;;5026689;28;20211;-79
2022/05/30 02:44:20;;;;;;;6.60;0.80;;;9.20;99.90;;;;;;5034479;28;21012;-79
2022/05/30 02:46:47;;;;;;;5.10;0.50;;;9.20;99.90;;;;;;5034802;28;20804;-80
2022/05/30 02:49:13;;;;;;;7.03;0.70;;;9.20;99.90;;;;;;5034674;28;21232;-80
2022/05/30 02:51:38;;;;;;;4.90;0.73;;;9.20;99.90;;;;;;5034717;28;20419;-81
2022/05/30 02:54:04;;;;;;;3.30;1.20;;;9.10;99.90;;;;;;5034580;28;20421;-80
2022/05/30 02:56:29;;;;;;;7.07;0.77;;;9.10;99.90;;;;;;5034561;28;20210;-80
2022/05/30 02:58:58;;;;;;;6.60;0.97;;;9.10;99.90;;;;;;5034134;28;20246;-80
2022/05/30 03:01:24;;;;;;;4.10;0.50;;;9.10;99.90;;;;;;5034440;28;20238;-80
2022/05/30 03:03:50;;;;;;;1.83;0.50;;;9.20;99.90;;;;;;5034327;28;20421;-80
2022/05/30 03:06:16;;;;;;;3.63;0.60;;;9.20;99.90;;;;;;5034398;28;20225;-80
2022/05/30 03:08:42;;;;;;;5.37;0.53;;;9.20;99.90;;;;;;5034207;28;20175;-80
2022/05/30 03:11:10;;;;;;;8.30;1.00;;;9.20;99.90;;;;;;5034230;28;20602;-81
2022/05/30 03:13:36;;;;;;;4.90;0.73;;;9.20;99.90;;;;;;5033639;28;20556;-80
2022/05/30 03:16:02;;;;;;;4.83;0.70;;;9.20;99.90;;;;;;5034220;28;20459;-80
2022/05/30 03:18:31;;;;;;;4.90;0.73;;;9.10;99.90;;;;;;5033963;28;20776;-81
2022/05/30 03:20:57;;;;;;;6.90;0.83;;;9.20;99.90;;;;;;5033879;28;20562;-81
2022/05/30 03:23:22;;;;;;;6.27;1.40;;;9.20;99.90;;;;;;5034023;28;20445;-80
2022/05/30 03:25:48;;;;;;;7.33;1.00;;;9.20;99.90;;;;;;5034037;28;20200;-80
2022/05/30 03:28:14;;;;;;;3.50;1.07;;;9.20;99.90;;;;;;5015831;28;20198;-81
2022/05/30 03:30:39;;;;;;;4.23;1.57;;;9.20;99.90;;;;;;5033721;28;20184;-80
2022/05/30 03:33:06;;;;;;;2.00;0.70;;;9.30;99.90;;;;;;5016091;28;20425;-81
2022/05/30 03:35:32;;;;;;;4.77;1.20;;;9.30;99.90;;;;;;5033780;28;20173;-81
2022/05/30 03:37:57;;;;;;;4.83;0.83;;;9.30;99.90;;;;;;5033738;28;20435;-80
2022/05/30 03:40:23;;;;;;;6.80;1.53;;;9.30;99.90;;;;;;5033586;28;20194;-80
2022/05/30 03:42:48;;;;;;;7.83;0.93;;;9.30;99.90;;;;;;5033260;28;20537;-80
2022/05/30 03:45:14;;;;;;;10.70;1.50;;;9.30;99.90;;;;;;5034201;28;20190;-81
2022/05/30 03:47:42;;;;;;;5.10;1.00;;;9.30;99.90;;;;;;5034295;28;20256;-80
2022/05/30 03:50:11;;;;;;;6.27;1.30;;;9.30;99.90;;;;;;5033942;28;20166;-81
2022/05/30 03:52:46;;;;;;;4.23;1.50;;;9.30;99.90;;;;;;5016663;28;20622;-82
2022/05/30 03:55:14;;;;;;;8.70;1.23;;;9.40;99.90;;;;;;5016308;28;20509;-82
2022/05/30 03:57:41;;;;;;;4.90;1.60;;;9.40;99.90;;;;;;5033744;28;21260;-80
2022/05/30 04:00:13;;;;;;;2.77;1.73;;;9.40;99.90;;;;;;5034025;28;20409;-81
2022/05/30 04:02:39;;;;;;;9.77;1.53;;;9.30;99.90;;;;;;5033776;28;20430;-81
2022/05/30 04:05:05;;;;;;;7.00;1.30;;;9.40;99.90;;;;;;5033939;28;20467;-81
2022/05/30 04:07:33;;;;;;;10.53;2.03;;;9.30;99.90;;;;;;5033642;28;20268;-80
2022/05/30 04:09:59;;;;;;;7.00;1.50;;;9.40;99.90;;;;;;5016017;28;20424;-80
2022/05/30 04:12:24;;;;;;;4.17;0.83;;;9.40;99.90;;;;;;5033229;28;21022;-80
2022/05/30 04:14:58;;;;;;;10.20;2.10;;;9.50;99.90;;;;;;5033768;28;20186;-80
2022/05/30 04:17:24;;;;;;;7.00;1.27;;;9.50;99.90;;;;;;5033672;28;20169;-82
2022/05/30 04:19:50;;;;;;;4.03;0.67;;;9.50;99.90;;;;;;5033580;28;20438;-81
2022/05/30 04:22:16;;;;;;;14.00;2.93;;;9.50;99.90;;;;;;5033394;28;20480;-81
2022/05/30 04:24:42;;;;;;;3.70;1.03;;;9.60;99.90;;;;;;5033643;28;20166;-82
2022/05/30 04:27:08;;;;;;;6.73;1.83;;;9.60;99.90;;;;;;5015920;28;20425;-80
2022/05/30 04:29:34;;;;;;;9.03;2.67;;;9.60;99.90;;;;;;5033159;28;20634;-79
2022/05/30 04:32:00;;;;;;;5.13;1.30;;;9.70;99.90;;;;;;5033648;28;20180;-80
2022/05/30 04:34:26;;;;;;;5.27;1.80;;;9.70;99.90;;;;;;5033508;28;20408;-81
2022/05/30 04:36:52;;;;;;;6.20;1.23;;;9.70;99.90;;;;;;5033671;28;20429;-80
2022/05/30 04:39:18;;;;;;;7.70;1.47;;;9.60;99.90;;;;;;5033430;28;20427;-80
2022/05/30 04:41:43;;;;;;;5.57;1.20;;;9.70;99.90;;;;;;5033447;28;20222;-80
2022/05/30 04:44:09;;;;;;;7.80;1.47;;;9.70;99.90;;;;;;5035951;28;20265;-80
2022/05/30 04:46:34;;;;;;;7.40;1.50;;;9.60;99.90;;;;;;5037355;28;20184;-80
2022/05/30 04:49:00;;;;;;;4.70;1.50;;;9.70;99.90;;;;;;5037570;28;20185;-80
2022/05/30 04:51:26;;;;;;;4.83;1.20;;;9.70;99.90;;;;;;5037432;28;20170;-81
2022/05/30 04:53:52;;;;;;;8.93;1.90;;;9.80;99.90;;;;;;5037531;28;20178;-80
2022/05/30 04:56:19;;;;;;;4.50;1.03;;;9.80;99.90;;;;;;5037591;28;20421;-81
2022/05/30 04:58:46;;;;;;;4.97;0.70;;;9.90;99.90;;;;;;5036357;28;20235;-81
2022/05/30 05:01:12;;;;;;;5.47;0.90;;;9.90;99.90;;;;;;5036786;28;20476;-82
2022/05/30 05:03:40;;;;;;;2.47;1.03;;;9.80;99.90;;;;;;5036766;28;20476;-80
2022/05/30 05:06:14;;;;;;;6.53;1.07;;;9.80;99.90;;;;;;5036715;28;20994;-80
2022/05/30 05:08:57;;;;;;;4.67;0.53;;;9.80;99.90;;;;;;5036676;28;20408;-81
2022/05/30 05:11:29;;;;;;;9.50;1.63;;;9.80;99.90;;;;;;5036632;28;20913;-80
2022/05/30 05:13:55;;;;;;;6.73;0.87;;;9.80;99.90;;;;;;5035982;28;20467;-81
2022/05/30 05:16:24;;;;;;;4.30;1.03;;;9.70;99.90;;;;;;5036452;28;20498;-81
2022/05/30 05:18:50;;;;;;;7.20;1.70;;;9.70;99.90;;;;;;5036369;28;20571;-80
2022/05/30 05:21:20;;;;;;;7.20;1.10;;;9.70;99.90;;;;;;5036142;28;21058;-80
2022/05/30 05:23:46;;;;;;;9.67;1.00;;;9.70;99.90;;;;;;5036167;28;20177;-80
2022/05/30 05:26:12;;;;;;;6.67;2.10;;;9.80;99.90;;;;;;5018500;28;20817;-80
2022/05/30 05:28:38;;;;;;;6.17;0.83;;;9.90;99.90;;;;;;5036051;28;20756;-81
2022/05/30 05:31:06;;;;;;;4.27;0.53;;;9.90;99.90;;;;;;5036218;28;20438;-80
2022/05/30 05:33:32;;;;;;;4.07;1.20;;;10.00;99.90;;;;;;5035927;28;20410;-80
2022/05/30 05:35:57;;;;;;;2.43;0.83;;;10.00;99.90;;;;;;5018199;28;20431;-80
2022/05/30 05:38:23;;;;;;;9.60;0.70;;;10.00;99.90;;;;;;5036215;28;20178;-80
2022/05/30 05:40:48;;;;;;;2.93;0.90;;;10.10;99.90;;;;;;5018251;28;20294;-80
2022/05/30 05:43:14;;;;;;;4.73;1.10;;;10.30;99.90;;;;;;5040384;28;20173;-81
2022/05/30 05:45:41;;;;;;;8.10;1.57;;;10.30;99.90;;;;;;5043655;28;20176;-81
2022/05/30 05:48:09;;;;;;;7.97;1.40;;;10.30;99.90;;;;;;5044464;28;20171;-81
2022/05/30 05:50:38;;;;;;;5.20;1.30;;;10.30;99.90;;;;;;5027832;28;20431;-80
2022/05/30 05:53:04;;;;;;;4.10;1.10;;;10.30;99.90;;;;;;5044081;28;20410;-80
2022/05/30 05:55:29;;;;;;;3.90;0.90;;;10.40;99.90;;;;;;5044161;28;20444;-80
2022/05/30 05:57:55;;;;;;;3.53;0.90;;;10.50;99.90;;;;;;5045145;28;20177;-80
2022/05/30 06:00:20;;;;;;;4.23;0.83;;;10.50;99.90;;;;;;5025548;28;20551;-79
2022/05/30 06:02:46;;;;;;;4.93;1.10;;;10.50;99.90;;;;;;5044389;28;20183;-81
2022/05/30 06:05:11;;;;;;;5.30;1.23;;;10.60;99.90;;;;;;5044808;28;20171;-81
2022/05/30 06:07:39;;;;;;;7.77;1.50;;;10.60;99.90;;;;;;5043188;28;20649;-80
2022/05/30 06:10:06;;;;;;;10.13;3.23;;;10.70;99.90;;;;;;5044552;28;20254;-81
2022/05/30 06:12:37;;;;;;;5.30;1.20;;;10.70;99.90;;;;;;5044145;28;20467;-80
2022/05/30 06:15:08;;;;;;;5.30;1.30;;;10.80;99.90;;;;;;5043468;28;20490;-80
2022/05/30 06:17:33;;;;;;;4.13;1.40;;;10.60;99.90;;;;;;5043280;28;20977;-80
2022/05/30 06:20:00;;;;;;;6.27;1.40;;;10.70;99.90;;;;;;5045071;28;20506;-80
2022/05/30 06:22:25;;;;;;;6.00;2.27;;;10.70;99.90;;;;;;5043580;28;20180;-80
2022/05/30 06:24:51;;;;;;;5.97;1.47;;;10.70;99.90;;;;;;5051528;28;20479;-81
2022/05/30 06:27:18;;;;;;;4.63;1.47;;;10.80;99.90;;;;;;5036078;28;20233;-80
2022/05/30 06:29:44;;;;;;;7.17;1.60;;;10.80;99.90;;;;;;5055072;28;20225;-82
2022/05/30 06:32:11;;;;;;;4.10;1.50;;;10.80;99.90;;;;;;5055152;28;20410;-87
2022/05/30 06:34:36;;;;;;;9.00;3.70;;;10.70;99.90;;;;;;5055538;28;20413;-90
2022/05/30 06:37:02;;;;;;;10.50;3.33;;;10.60;99.90;;;;;;5055658;28;20463;-83
2022/05/30 06:39:27;;;;;;;7.80;2.73;;;10.50;99.90;;;;;;5055949;28;20175;-80
2022/05/30 06:41:53;;;;;;;6.63;2.60;;;10.40;99.90;;;;;;5054497;28;20218;-84
2022/05/30 06:44:20;;;;;;;8.30;2.67;;;11.10;99.90;;;;;;5055045;28;20162;-82
2022/05/30 06:46:45;;;;;;;7.17;2.17;;;10.60;99.90;;;;;;5054589;28;20470;-82
2022/05/30 06:49:11;;;;;;;7.17;2.50;;;10.40;99.90;;;;;;5036729;28;20520;-82
2022/05/30 06:51:37;;;;;;;6.10;2.57;;;10.30;99.90;;;;;;5054220;28;20262;-82
2022/05/30 06:54:04;;;;;;;7.80;2.87;;;10.20;99.90;;;;;;5054494;28;20311;-83
2022/05/30 06:56:33;;;;;;;5.57;2.03;;;10.20;99.90;;;;;;5054396;28;20420;-83
2022/05/30 06:58:59;;;;;;;4.93;2.07;;;10.20;99.90;;;;;;5054170;28;21100;-83
2022/05/30 07:01:31;;;;;;;4.73;2.33;;;10.20;99.90;;;;;;5036538;28;20519;-84
2022/05/30 07:03:56;;;;;;;3.77;2.73;;;10.30;99.90;;;;;;5054430;28;20434;-83
2022/05/30 07:06:28;;;;;;;7.13;2.50;;;10.30;99.90;;;;;;5053786;28;20417;-82
2022/05/30 07:08:54;;;;;;;10.77;2.37;;;10.30;99.90;;;;;;5054513;28;20631;-82
2022/05/30 07:11:22;;;;;;;4.77;1.73;;;10.30;99.90;;;;;;5036444;28;20424;-83
2022/05/30 07:13:48;;;;;;;6.27;2.57;;;10.30;99.90;;;;;;5035841;28;20468;-82
2022/05/30 07:16:14;;;;;;;9.50;2.40;;;10.50;99.90;;;;;;5054287;28;20899;-83
2022/05/30 07:18:40;;;;;;;7.20;2.67;;;10.70;99.90;;;;;;5054212;28;20502;-82
2022/05/30 07:21:08;;;;;;;5.43;1.40;;;10.90;99.90;;;;;;5054170;28;20232;-82
2022/05/30 07:23:35;;;;;;;5.13;1.53;;;11.10;99.90;;;;;;5054055;28;20910;-83
2022/05/30 07:26:04;;;;;;;4.80;2.30;;;11.10;99.90;;;;;;5054174;28;20421;-83
2022/05/30 07:28:30;;;;;;;5.60;2.13;;;11.20;99.90;;;;;;5053699;28;20516;-82
2022/05/30 07:31:03;;;;;;;11.43;2.93;;;11.40;99.90;;;;;;5036113;28;20469;-83
2022/05/30 07:33:29;;;;;;;6.17;1.60;;;11.50;99.90;;;;;;5054108;28;20946;-83
2022/05/30 07:35:54;;;;;;;6.70;2.43;;;11.70;99.90;;;;;;5054119;28;20427;-84
2022/05/30 07:38:20;;;;;;;3.97;1.93;;;11.90;99.90;;;;;;5053903;28;20168;-82
2022/05/30 07:40:46;;;;;;;3.60;1.40;;;11.80;99.90;;;;;;5053903;28;20209;-81
2022/05/30 07:43:12;;;;;;;4.13;1.30;;;11.80;99.90;;;;;;5053447;28;20199;-82
2022/05/30 07:45:38;;;;;;;4.10;1.43;;;11.90;99.90;;;;;;5053784;28;20189;-82
2022/05/30 07:48:04;;;;;;;3.70;1.37;;;12.20;99.90;;;;;;5053843;28;21001;-82
2022/05/30 07:50:30;;;;;;;8.30;1.47;;;12.20;99.90;;;;;;5053807;28;20180;-83
2022/05/30 07:52:56;;;;;;;6.93;1.43;;;12.20;99.90;;;;;;5053684;28;20905;-83
2022/05/30 07:55:21;;;;;;;6.23;1.67;;;12.10;99.90;;;;;;5053728;28;20576;-83
2022/05/30 07:57:59;;;;;;;2.90;1.10;;;12.30;99.90;;;;;;5053240;28;20534;-84
2022/05/30 08:00:29;;;;;;;3.77;1.17;;;12.50;99.90;;;;;;5035729;28;20216;-84
2022/05/30 08:02:55;;;;;;;3.77;1.37;;;12.50;99.90;;;;;;5054104;28;20510;-84
2022/05/30 08:05:21;;;;;;;3.77;1.40;;;12.80;99.90;;;;;;5054072;28;20550;-84
2022/05/30 08:07:47;;;;;;;4.13;1.33;;;13.30;1.00;;;;;;5036003;28;20204;-84
2022/05/30 08:10:16;;;;;;;10.60;1.30;;;13.00;21.30;;;;;;5053724;28;20413;-82
2022/05/30 08:12:42;;;;;;;2.37;1.33;;;12.90;22.70;;;;;;5053379;28;20296;-83
2022/05/30 08:15:09;;;;;;;4.10;1.03;;;13.10;99.90;;;;;;5053797;28;20438;-84
2022/05/30 08:17:35;;;;;;;2.70;1.23;;;12.80;1.00;;;;;;5052784;28;20424;-83
2022/05/30 08:20:02;;;;;;;3.13;1.27;;;12.60;1.00;;;;;;5053871;28;20458;-82
2022/05/30 08:22:28;;;;;;;2.10;0.60;;;12.50;1.00;;;;;;5053651;28;20485;-83
2022/05/30 08:24:54;;;;;;;3.20;0.63;;;12.50;1.00;;;;;;5053894;28;20416;-83
2022/05/30 08:27:21;;;;;;;3.93;0.73;;;12.70;1.00;;;;;;5053437;28;20176;-82
2022/05/30 08:29:47;;;;;;;3.83;0.93;;;12.60;1.00;;;;;;5053862;28;20412;-84
2022/05/30 08:32:13;;;;;;;1.70;0.47;;;12.40;1.00;;;;;;5053788;28;20426;-83
2022/05/30 08:34:40;;;;;;;2.13;0.70;;;12.20;38.10;;;;;;5054067;28;20451;-83
2022/05/30 08:37:07;;;;;;;4.83;0.60;;;12.20;99.90;;;;;;5036404;28;20442;-84
2022/05/30 08:42:26;;;;;;;1.63;0.70;;;11.80;99.90;;;;;;5052466;28;21001;-83
2022/05/30 08:44:52;;;;;;;3.03;0.80;;;11.60;99.90;;;;;;5052797;28;20896;-83
2022/05/30 08:47:49;;;;;;;1.83;0.60;;;11.50;99.90;;;;;;5052625;28;20484;-84
2022/05/30 08:50:41;;;;;;;2.00;0.70;;;11.40;99.90;;;;;;5052794;28;20415;-83
2022/05/30 08:53:51;;;;;;;3.67;0.90;;;11.30;99.90;;;;;;5052705;28;20505;-83
2022/05/30 08:56:26;;;;;;;2.00;0.53;;;11.30;99.90;;;;;;5052934;28;20468;-83
2022/05/30 08:59:30;;;;;;;2.53;0.70;;;11.10;99.90;;;;;;5052725;28;20454;-83
2022/05/30 09:02:04;;;;;;;5.20;0.80;;;11.10;99.90;;;;;;5022421;28;20473;-83
2022/05/30 09:04:58;;;;;;;4.07;0.63;;;11.20;99.90;;;;;;5052633;28;20422;-83
2022/05/30 09:07:29;;;;;;;2.00;0.70;;;11.10;99.90;;;;;;5028851;28;20838;-83
2022/05/30 09:10:02;;;;;;;1.83;0.87;;;11.20;99.90;;;;;;5052617;28;20433;-83
2022/05/30 09:12:39;;;;;;;3.27;0.40;;;11.20;99.90;;;;;;5052196;28;20442;-83
2022/05/30 09:15:15;;;;;;;2.00;1.03;;;11.30;99.90;;;;;;5052573;28;20930;-83
2022/05/30 09:17:44;;;;;;;2.07;0.60;;;11.40;99.90;;;;;;5052507;28;20517;-83
2022/05/30 09:20:15;;;;;;;4.70;1.50;;;11.50;99.90;;;;;;5034680;28;20462;-84
2022/05/30 09:22:41;;;;;;;4.50;0.80;;;11.60;99.90;;;;;;5052434;28;20908;-84
2022/05/30 09:27:58;;;;;;;2.10;0.50;;;11.70;99.90;;;;;;5052318;28;20413;-84
2022/05/30 09:30:29;;;;;;;3.30;0.40;;;11.80;99.90;;;;;;5055584;28;20419;-84
2022/05/30 09:33:09;;;;;;;3.00;0.83;;;11.90;99.90;;;;;;5056086;28;20602;-84
2022/05/30 09:35:35;;;;;;;2.07;0.67;;;11.90;81.70;;;;;;5038262;28;20431;-84
2022/05/30 09:38:19;;;;;;;5.13;0.70;;;12.00;99.90;;;;;;5039047;28;20788;-85
2022/05/30 09:40:50;;;;;;;1.30;0.50;;;12.00;99.90;;;;;;5055872;28;20470;-84
2022/05/30 09:43:39;;;;;;;3.13;0.73;;;12.00;99.90;;;;;;5055603;28;20512;-85
2022/05/30 09:46:25;;;;;;;1.80;0.30;;;12.10;99.90;;;;;;5055870;28;20419;-84
2022/05/30 09:49:05;;;;;;;3.43;0.83;;;12.10;99.90;;;;;;5055797;28;20423;-84
2022/05/30 09:51:40;;;;;;;1.90;0.87;;;12.20;99.90;;;;;;5038209;28;20837;-85
2022/05/30 09:54:09;;;;;;;3.73;0.70;;;12.10;1.00;;;;;;5055672;28;20787;-84
2022/05/30 09:56:39;;;;;;;7.87;0.53;;;12.00;87.10;;;;;;5055451;28;20427;-84
2022/05/30 09:59:32;;;;;;;3.10;1.03;;;12.10;99.90;;;;;;5055886;28;20396;-84
2022/05/30 10:01:58;;;;;;;0.90;0.30;;;12.10;99.90;;;;;;5046486;28;20480;-84
2022/05/30 10:04:41;;;;;;;1.10;0.73;;;12.20;99.90;;;;;;5045400;28;20412;-84
2022/05/30 10:07:11;;;;;;;2.57;0.40;;;12.20;99.90;;;;;;5027611;28;20174;-84
2022/05/30 10:09:58;;;;;;;2.40;0.60;;;12.10;1.00;;;;;;5027120;28;20838;-84
2022/05/30 10:12:36;;;;;;;3.03;0.50;;;12.10;1.00;;;;;;5026904;28;20412;-84
2022/05/30 10:15:19;;;;;;;1.77;0.23;;;12.00;1.00;;;;;;5045415;28;20455;-85
2022/05/30 10:17:45;;;;;;;1.80;0.43;;;12.00;99.90;;;;;;5045392;28;20404;-84
2022/05/30 10:20:14;;;;;;;1.83;0.37;;;12.10;99.90;;;;;;5044060;28;20413;-84
2022/05/30 10:28:50;;;;;;;3.33;0.40;;;12.00;99.90;;;;;;5126218;23;20459;-84
2022/05/30 10:31:30;;;;;;;6.07;0.80;;;12.10;99.90;;;;;;5032206;28;20435;-84
2022/05/30 10:34:06;;;;;;;1.10;0.33;;;12.30;6.30;;;;;;5035467;28;20439;-84
2022/05/30 10:37:07;;;;;;;1.30;0.73;;;12.50;81.30;;;;;;5035455;28;20405;-84
2022/05/30 10:39:42;;;;;;;1.40;0.40;;;12.50;10.00;;;;;;5034971;28;20413;-85
2022/05/30 10:42:23;;;;;;;3.60;0.80;;;12.50;1.00;;;;;;5033878;28;20911;-85
2022/05/30 10:44:59;;;;;;;2.20;0.40;;;12.50;1.70;;;;;;5033889;28;20417;-85
2022/05/30 10:47:39;;;;;;;3.73;0.50;;;12.50;1.00;;;;;;5034658;28;20435;-86
2022/05/30 10:50:20;;;;;;;4.80;0.60;;;12.50;99.90;;;;;;5016715;28;20429;-84
2022/05/30 10:52:48;;;;;;;2.37;0.50;;;12.30;1.00;;;;;;5016943;28;20429;-86
2022/05/30 10:55:22;;;;;;;5.40;0.57;;;12.10;1.00;;;;;;5034805;28;20410;-86
2022/05/30 10:57:54;;;;;;;2.40;0.80;;;12.00;57.30;;;;;;5034349;28;20429;-86
2022/05/30 11:00:23;;;;;;;3.07;0.73;;;11.70;99.90;;;;;;5016834;28;20425;-84
2022/05/30 11:03:06;;;;;;;3.93;0.60;;;11.50;99.90;;;;;;5016919;28;20920;-84
2022/05/30 11:05:42;;;;;;;2.50;1.20;;;11.50;99.90;;;;;;5034499;28;20435;-85
2022/05/30 11:08:25;;;;;;;6.43;1.40;;;11.60;99.90;;;;;;5034521;28;20436;-85
2022/05/30 11:11:08;;;;;;;3.30;0.80;;;11.60;99.90;;;;;;5034294;28;20430;-85
2022/05/30 11:13:43;;;;;;;3.07;0.90;;;11.60;99.90;;;;;;5034265;28;20409;-85
2022/05/30 11:16:21;;;;;;;3.50;0.70;;;11.70;99.90;;;;;;5034212;28;20427;-84
2022/05/30 11:18:55;;;;;;;3.07;1.13;;;11.60;99.90;;;;;;5034151;28;20427;-84
2022/05/30 11:21:37;;;;;;;2.90;0.90;;;11.70;99.90;;;;;;5034103;28;20470;-84
2022/05/30 11:24:05;;;;;;;4.53;0.70;;;11.70;99.90;;;;;;5033991;28;20498;-84
2022/05/30 11:26:58;;;;;;;1.63;0.90;;;11.70;99.90;;;;;;5033696;28;20412;-83
2022/05/30 11:29:53;;;;;;;3.07;0.70;;;11.70;99.90;;;;;;5033707;28;20452;-83
2022/05/30 11:32:44;;;;;;;2.23;1.17;;;11.60;99.90;;;;;;5033857;28;20456;-83
2022/05/30 11:35:32;;;;;;;4.80;0.90;;;11.80;99.90;;;;;;5033940;28;20771;-83
2022/05/30 11:38:00;;;;;;;2.07;1.17;;;11.80;99.90;;;;;;5033797;28;20409;-83
2022/05/30 11:40:52;;;;;;;2.07;0.87;;;11.80;99.90;;;;;;5033664;28;20445;-84
2022/05/30 11:43:43;;;;;;;3.50;1.07;;;11.90;99.90;;;;;;5033305;28;20412;-84
2022/05/30 11:46:08;;;;;;;2.83;0.97;;;12.00;99.90;;;;;;5033799;28;20411;-84
2022/05/30 11:48:56;;;;;;;1.70;0.47;;;12.10;72.00;;;;;;5033347;28;20421;-84
2022/05/30 11:51:47;;;;;;;2.63;0.43;;;12.30;1.00;;;;;;5034703;28;20235;-89
2022/05/30 11:54:29;;;;;;;4.10;0.30;;;12.50;1.00;;;;;;5034815;28;20800;-85
2022/05/30 11:57:06;;;;;;;1.43;0.20;;;12.60;1.00;;;;;;5033906;28;20416;-84
2022/05/30 11:59:45;;;;;;;1.23;0.20;;;12.80;27.10;;;;;;5034219;28;20857;-84
2022/05/30 12:02:17;;;;;;;1.97;0.33;;;13.00;1.00;;;;;;5015768;28;21012;-85
2022/05/30 12:04:44;;;;;;;1.07;0.20;;;13.30;99.90;;;;;;5015747;28;20418;-83
2022/05/30 12:07:47;;;;;;;2.40;0.23;;;13.50;91.70;;;;;;5030256;28;20418;-84
2022/05/30 12:10:30;;;;;;;6.00;0.53;;;13.90;99.90;;;;;;5025953;28;20779;-82
2022/05/30 12:13:05;;;;;;;1.67;0.33;;;14.00;99.90;;;;;;5020834;28;20412;-82
2022/05/30 12:16:01;;;;;;;1.93;0.50;;;13.90;99.90;;;;;;5021257;28;21061;-82
2022/05/30 12:24:19;;;;;;;0.67;0.20;;;13.10;1.00;;;;;;5023353;28;20437;-85
2022/05/30 12:26:56;;;;;;;1.33;0.30;;;12.90;58.40;;;;;;5001689;28;20784;-84
2022/05/30 12:29:37;;;;;;;2.00;0.20;;;12.90;99.90;;;;;;5021242;28;20540;-84
2022/05/30 12:32:34;;;;;;;0.50;0.20;;;13.00;99.90;;;;;;5027900;28;20431;-84
2022/05/30 12:35:15;;;;;;;2.57;0.30;;;13.20;99.90;;;;;;5009355;28;20433;-84
2022/05/30 12:37:44;;;;;;;1.33;0.20;;;13.60;99.90;;;;;;5015074;28;20424;-85
2022/05/30 12:40:28;;;;;;;2.30;0.20;;;14.10;99.90;;;;;;5032637;28;20418;-82
2022/05/30 12:43:13;;;;;;;0.77;0.20;;;14.50;99.90;;;;;;5032283;28;20426;-82
2022/05/30 12:45:42;;;;;;;1.17;0.20;;;15.10;99.90;;;;;;5034506;28;20415;-82
2022/05/30 12:48:24;;;;;;;10.27;1.77;;;15.50;1.00;;;;;;5014900;28;20841;-82
2022/05/30 12:50:50;;;;;;;0.50;0.20;;;15.50;1.00;;;;;;5032644;28;20415;-82
2022/05/30 12:53:16;;;;;;;3.63;0.70;;;15.90;1.00;;;;;;5032717;28;20441;-83
2022/05/30 12:55:50;;;;;;;0.93;0.20;;;16.10;1.00;;;;;;5032485;28;20230;-83
2022/05/30 12:58:50;;;;;;;1.03;0.30;;;15.80;1.00;;;;;;5032341;28;20415;-83
2022/05/30 13:01:25;;;;;;;1.03;0.20;;;15.70;1.00;;;;;;4989879;28;20479;-83
2022/05/30 13:04:26;;;;;;;1.17;0.20;;;15.70;1.00;;;;;;5033248;28;20412;-83
2022/05/30 13:06:58;;;;;;;1.30;0.27;;;15.70;99.90;;;;;;5018612;28;20834;-83
2022/05/30 13:09:46;;;;;;;2.53;0.20;;;15.50;99.90;;;;;;5015465;28;20413;-82
2022/05/30 13:12:14;;;;;;;1.07;0.40;;;15.20;99.90;;;;;;5007951;28;20415;-82
2022/05/30 13:15:16;;;;;;;3.50;0.60;;;15.00;99.90;;;;;;5024746;28;20406;-82
2022/05/30 13:17:53;;;;;;;0.67;0.20;;;14.80;1.00;;;;;;5024803;28;20437;-82
2022/05/30 13:20:35;;;;;;;2.20;0.20;;;14.80;1.00;;;;;;5024480;28;20413;-82
2022/05/30 13:23:02;;;;;;;1.00;0.20;;;14.70;99.90;;;;;;5024547;28;20425;-84
2022/05/30 13:25:55;;;;;;;1.23;0.20;;;14.70;99.90;;;;;;5026084;28;20407;-84
2022/05/30 13:28:31;;;;;;;0.87;0.20;;;14.40;99.90;;;;;;5021908;28;20428;-84
2022/05/30 13:31:00;;;;;;;1.57;0.20;;;14.30;99.90;;;;;;5026109;28;20476;-84
2022/05/30 13:33:46;;;;;;;4.10;0.30;;;14.10;99.90;;;;;;5025934;28;20415;-83
2022/05/30 13:36:23;;;;;;;2.33;0.23;;;14.20;99.90;;;;;;5026859;28;20914;-84